Terminal Aerodrome Forecast
Issued by NWS Sterling, VA

Home | Current Version | Previous Version | Text Only | Print | Product List | Glossary On
Versions: 1 2 3 4 5 6 7 8 9 10 11 12 13 14
000
FTUS41 KLWX 191100
TAFMRB
TAF
KMRB 191131Z 1912/2012 00000KT P6SM BKN250
     FM191300 03006KT P6SM BKN250
     FM191500 04010KT P6SM BKN250
     FM192200 01006KT P6SM SCT250=

USA.gov is the U.S. government's official web portal to all federal, state and local government web resources and services.